createdAt,value
2017-06-30T00:00:00.981Z,23.9
2017-06-30T00:01:10.263Z,24.06
2017-06-30T00:02:20.473Z,24.05
2017-06-30T00:03:30.376Z,24.05
2017-06-30T00:04:40.654Z,24.03
2017-06-30T00:05:50.239Z,24.16
2017-06-30T00:07:00.147Z,24.1
2017-06-30T00:08:10.360Z,24.09
2017-06-30T00:09:20.578Z,24.09
2017-06-30T00:10:30.333Z,24.08
2017-06-30T00:11:40.239Z,24.1
2017-06-30T00:12:50.147Z,24.18
2017-06-30T00:14:00.052Z,24.2
2017-06-30T00:15:09.646Z,24.27
2017-06-30T00:16:19.999Z,24.28
2017-06-30T00:17:30.220Z,24.1
2017-06-30T00:18:40.426Z,24.34
2017-06-30T00:19:50.325Z,24.25
2017-06-30T00:21:00.542Z,24.3
2017-06-30T00:22:09.982Z,24.28
2017-06-30T00:23:20.190Z,24.24
2017-06-30T00:24:29.794Z,24.34
2017-06-30T00:25:39.710Z,24.3
2017-06-30T00:26:49.302Z,24.3
2017-06-30T00:27:59.191Z,24.42
2017-06-30T00:29:09.409Z,24.43
2017-06-30T00:30:19.009Z,24.37
2017-06-30T00:31:29.226Z,24.42
2017-06-30T00:32:39.435Z,24.45
2017-06-30T00:33:49.028Z,24.42
2017-06-30T00:34:58.634Z,24.28
2017-06-30T00:36:08.534Z,24.39
2017-06-30T00:37:18.748Z,24.32
2017-06-30T00:38:28.640Z,24.42
2017-06-30T00:39:38.866Z,24.32
2017-06-30T00:40:48.772Z,24.42
2017-06-30T00:41:58.668Z,24.31
2017-06-30T00:43:08.623Z,24.4
2017-06-30T00:44:18.830Z,24.32
2017-06-30T00:45:28.744Z,24.28
2017-06-30T00:46:38.343Z,24.43
2017-06-30T00:47:48.251Z,24.37
2017-06-30T00:48:58.467Z,24.45
2017-06-30T00:50:08.668Z,24.34
2017-06-30T00:51:18.720Z,24.31
2017-06-30T00:52:28.620Z,24.47
2017-06-30T00:53:38.520Z,24.39
2017-06-30T00:54:48.416Z,24.34
2017-06-30T00:55:57.704Z,24.32
2017-06-30T00:57:07.956Z,24.43
2017-06-30T00:58:17.855Z,24.28
2017-06-30T00:59:27.469Z,24.34
2017-06-30T01:00:37.382Z,24.35
2017-06-30T01:01:47.284Z,24.3
2017-06-30T01:02:57.537Z,24.31
2017-06-30T01:04:07.123Z,24.46
2017-06-30T01:05:17.329Z,24.42
2017-06-30T01:06:27.536Z,24.45
2017-06-30T01:07:37.431Z,24.4
2017-06-30T01:08:47.018Z,24.32
2017-06-30T01:09:57.216Z,24.35
2017-06-30T01:11:07.108Z,24.3
2017-06-30T01:12:17.320Z,24.3
2017-06-30T01:13:27.525Z,24.32
2017-06-30T01:14:36.912Z,24.3
2017-06-30T01:15:47.116Z,24.43
2017-06-30T01:16:57.324Z,24.42
2017-06-30T01:18:07.220Z,24.43
2017-06-30T01:19:16.811Z,24.46
2017-06-30T01:20:26.711Z,24.47
2017-06-30T01:21:36.914Z,24.31
2017-06-30T01:22:46.816Z,24.37
2017-06-30T01:23:56.712Z,24.28
2017-06-30T01:25:06.617Z,24.49
2017-06-30T01:26:17.341Z,24.49
2017-06-30T01:27:27.230Z,24.46
2017-06-30T01:28:37.129Z,24.39
2017-06-30T01:29:46.409Z,24.37
2017-06-30T01:30:56.012Z,24.47
2017-06-30T01:32:06.207Z,24.37
2017-06-30T01:33:16.431Z,24.39
2017-06-30T01:34:26.328Z,24.46
2017-06-30T01:35:36.537Z,24.46
2017-06-30T01:36:45.822Z,24.45
2017-06-30T01:37:56.545Z,24.46
2017-06-30T01:39:06.463Z,24.46
2017-06-30T01:40:16.666Z,24.43
2017-06-30T01:41:26.880Z,24.31
2017-06-30T01:42:36.800Z,24.43
2017-06-30T01:43:47.047Z,24.3
2017-06-30T01:44:56.944Z,24.32
2017-06-30T01:46:06.532Z,24.42
2017-06-30T01:47:16.501Z,24.42
2017-06-30T01:48:26.459Z,24.25
2017-06-30T01:49:36.656Z,24.34
2017-06-30T01:50:46.860Z,24.46
2017-06-30T01:51:56.448Z,24.43
2017-06-30T01:53:06.346Z,24.34
2017-06-30T01:54:16.253Z,24.32
2017-06-30T01:55:26.552Z,24.43
2017-06-30T01:56:36.763Z,24.39
2017-06-30T01:57:46.370Z,24.42
2017-06-30T01:58:56.263Z,24.31
2017-06-30T02:00:05.862Z,24.37
2017-06-30T02:01:15.655Z,24.39
2017-06-30T02:02:25.547Z,24.45
2017-06-30T02:03:35.463Z,24.39
2017-06-30T02:04:45.052Z,24.3
2017-06-30T02:05:54.949Z,24.39
2017-06-30T02:07:05.055Z,24.45
2017-06-30T02:08:14.954Z,24.43
2017-06-30T02:09:24.870Z,24.39
2017-06-30T02:10:34.162Z,24.45
2017-06-30T02:11:43.792Z,24.3
2017-06-30T02:12:53.795Z,24.47
2017-06-30T02:14:03.715Z,24.37
2017-06-30T02:15:13.050Z,24.34
2017-06-30T02:16:22.952Z,24.39
2017-06-30T02:17:32.550Z,24.42
2017-06-30T02:18:42.448Z,24.43
2017-06-30T02:19:52.039Z,24.39
2017-06-30T02:21:01.954Z,24.31
2017-06-30T02:22:11.858Z,24.31
2017-06-30T02:23:22.082Z,24.24
2017-06-30T02:24:32.341Z,24.25
2017-06-30T02:25:42.243Z,24.28
2017-06-30T02:26:58.731Z,24.3
2017-06-30T02:28:08.010Z,24.34
2017-06-30T02:29:17.604Z,24.42
2017-06-30T02:30:27.665Z,24.37
2017-06-30T02:31:37.891Z,24.35
2017-06-30T02:32:48.110Z,24.3
2017-06-30T02:33:58.332Z,24.31
2017-06-30T02:35:08.922Z,24.24
2017-06-30T02:36:18.975Z,24.22
2017-06-30T02:37:28.590Z,24.16
2017-06-30T02:38:38.183Z,24.22
2017-06-30T02:39:48.071Z,24.22
2017-06-30T02:40:57.972Z,24.09
2017-06-30T02:42:08.185Z,24.1
2017-06-30T02:43:17.813Z,24.06
2017-06-30T02:44:28.083Z,24.06
2017-06-30T02:45:37.672Z,24.22
2017-06-30T02:46:47.933Z,24.15
2017-06-30T02:47:57.985Z,24.13
2017-06-30T02:49:07.585Z,24.2
2017-06-30T02:50:17.500Z,24.16
2017-06-30T02:51:27.088Z,24.06
2017-06-30T02:52:37.311Z,24.05
2017-06-30T02:53:47.359Z,24.1
2017-06-30T02:54:57.260Z,24.09
2017-06-30T02:56:07.175Z,24.06
2017-06-30T02:57:16.511Z,24.09
2017-06-30T02:58:26.469Z,24.03
2017-06-30T02:59:36.370Z,24.05
2017-06-30T03:00:46.594Z,24.08
2017-06-30T03:01:56.813Z,23.97
2017-06-30T03:03:05.786Z,24.05
2017-06-30T03:04:15.696Z,24.1
2017-06-30T03:05:25.357Z,24.03
2017-06-30T03:06:34.971Z,24.06
2017-06-30T03:07:44.562Z,24.06
2017-06-30T03:08:54.793Z,24
2017-06-30T03:10:04.114Z,24.05
2017-06-30T03:11:14.479Z,23.94
2017-06-30T03:12:24.684Z,23.97
2017-06-30T03:13:33.964Z,23.98
2017-06-30T03:14:43.561Z,23.95
2017-06-30T03:15:53.474Z,23.98
2017-06-30T03:17:03.499Z,23.97
2017-06-30T03:18:12.798Z,24.08
2017-06-30T03:19:22.688Z,24
2017-06-30T03:20:32.880Z,23.94
2017-06-30T03:21:41.873Z,23.93
2017-06-30T03:22:51.518Z,23.95
2017-06-30T03:24:01.438Z,23.94
2017-06-30T03:25:11.040Z,23.9
2017-06-30T03:26:20.943Z,23.91
2017-06-30T03:27:31.139Z,23.85
2017-06-30T03:28:40.788Z,23.88
2017-06-30T03:29:50.685Z,23.79
2017-06-30T03:31:00.893Z,23.79
2017-06-30T03:32:11.114Z,23.69
2017-06-30T03:33:20.703Z,23.61
2017-06-30T03:34:30.448Z,23.53
2017-06-30T03:35:40.343Z,23.36
2017-06-30T03:36:49.933Z,23.36
2017-06-30T03:37:59.833Z,23.39
2017-06-30T03:39:09.435Z,23.43
2017-06-30T03:40:19.489Z,23.39
2017-06-30T03:41:29.387Z,23.4
2017-06-30T03:42:39.283Z,23.35
2017-06-30T03:43:48.875Z,23.39
2017-06-30T03:44:59.075Z,23.48
2017-06-30T03:46:09.130Z,23.43
2017-06-30T03:47:19.350Z,23.47
2017-06-30T03:48:29.566Z,23.46
2017-06-30T03:49:39.777Z,23.48
2017-06-30T03:50:49.667Z,23.54
2017-06-30T03:51:59.711Z,23.51
2017-06-30T03:53:09.615Z,23.4
2017-06-30T03:54:18.919Z,23.47
2017-06-30T03:55:29.119Z,23.42
2017-06-30T03:56:38.747Z,23.42
2017-06-30T03:57:49.124Z,23.33
2017-06-30T03:58:59.038Z,23.39
2017-06-30T04:00:08.669Z,23.36
2017-06-30T04:01:18.253Z,23.39
2017-06-30T04:02:28.457Z,23.36
2017-06-30T04:03:38.827Z,23.36
2017-06-30T04:04:48.424Z,23.38
2017-06-30T04:05:58.641Z,23.39
2017-06-30T04:07:08.233Z,23.39
2017-06-30T04:08:18.436Z,23.39
2017-06-30T04:09:28.438Z,23.31
2017-06-30T04:10:38.349Z,23.31
2017-06-30T04:11:48.290Z,23.27
2017-06-30T04:12:58.508Z,23.31
2017-06-30T04:14:08.444Z,23.1
2017-06-30T04:15:18.700Z,23.12
2017-06-30T04:16:28.286Z,23.12
2017-06-30T04:17:38.184Z,22.98
2017-06-30T04:18:48.106Z,22.97
2017-06-30T04:19:58.326Z,22.92
2017-06-30T04:21:08.387Z,22.94
2017-06-30T04:22:18.608Z,22.9
2017-06-30T04:23:28.804Z,22.95
2017-06-30T04:24:38.770Z,23.05
2017-06-30T04:25:48.676Z,23.02
2017-06-30T04:26:59.055Z,23.04
2017-06-30T04:28:09.320Z,23.17
2017-06-30T04:29:18.955Z,23.13
2017-06-30T04:30:29.242Z,23.16
2017-06-30T04:31:39.176Z,23.2
2017-06-30T04:32:49.379Z,23.23
2017-06-30T04:33:59.631Z,23.27
2017-06-30T04:35:09.844Z,23.38
2017-06-30T04:36:19.770Z,23.32
2017-06-30T04:37:29.368Z,23.32
2017-06-30T04:38:39.759Z,23.42
2017-06-30T04:39:49.092Z,23.43
2017-06-30T04:40:58.988Z,23.48
2017-06-30T04:42:07.980Z,23.47
2017-06-30T04:43:18.186Z,23.5
2017-06-30T04:44:28.254Z,23.5
2017-06-30T04:45:38.463Z,23.57
2017-06-30T04:46:48.388Z,23.6
2017-06-30T04:47:58.290Z,23.58
2017-06-30T04:49:08.198Z,23.63
2017-06-30T04:50:17.949Z,23.53
2017-06-30T04:51:27.853Z,23.63
2017-06-30T04:52:37.464Z,23.66
2017-06-30T04:53:47.681Z,23.65
2017-06-30T04:54:57.010Z,23.68
2017-06-30T04:56:07.375Z,23.76
2017-06-30T04:57:17.273Z,23.69
2017-06-30T04:58:27.187Z,23.88
2017-06-30T04:59:36.787Z,23.83
2017-06-30T05:00:46.997Z,23.87
2017-06-30T05:01:57.237Z,24
2017-06-30T05:03:07.147Z,24.06
2017-06-30T05:04:17.396Z,24.1
2017-06-30T05:05:27.294Z,24.09
2017-06-30T05:06:36.945Z,24.13
2017-06-30T05:07:46.915Z,24.2
2017-06-30T05:08:57.162Z,24.2
2017-06-30T05:10:06.780Z,24.27
2017-06-30T05:11:16.717Z,24.31
2017-06-30T05:12:26.311Z,24.32
2017-06-30T05:13:36.687Z,24.39
2017-06-30T05:14:46.598Z,24.49
2017-06-30T05:15:56.818Z,24.47
2017-06-30T05:17:06.439Z,24.35
2017-06-30T05:18:16.039Z,24.52
2017-06-30T05:19:25.995Z,24.47
2017-06-30T05:20:35.835Z,24.52
2017-06-30T05:21:45.436Z,24.52
2017-06-30T05:22:55.342Z,24.57
2017-06-30T05:24:05.292Z,24.64
2017-06-30T05:25:15.360Z,24.64
2017-06-30T05:26:25.588Z,24.77
2017-06-30T05:27:35.212Z,24.8
2017-06-30T05:28:44.810Z,24.73
2017-06-30T05:29:54.735Z,24.87
2017-06-30T05:31:04.739Z,24.76
2017-06-30T05:32:14.649Z,24.78
2017-06-30T05:33:24.580Z,24.88
2017-06-30T05:34:34.513Z,24.96
2017-06-30T05:35:44.465Z,24.78
2017-06-30T05:36:54.534Z,24.88
2017-06-30T05:38:04.761Z,24.91
2017-06-30T05:39:14.704Z,24.96
2017-06-30T05:40:24.620Z,24.93
2017-06-30T05:41:34.304Z,24.95
2017-06-30T05:42:44.361Z,25.05
2017-06-30T05:43:53.969Z,25.05
2017-06-30T05:45:03.876Z,25.09
2017-06-30T05:46:14.078Z,25.05
2017-06-30T05:47:23.989Z,25.2
2017-06-30T05:48:33.733Z,25.2
2017-06-30T05:49:43.933Z,25.17
2017-06-30T05:50:54.171Z,25.18
2017-06-30T05:52:04.387Z,25.18
2017-06-30T05:53:14.621Z,25.21
2017-06-30T05:54:24.678Z,25.14
2017-06-30T05:55:34.581Z,25.18
2017-06-30T05:56:43.575Z,25.15
2017-06-30T05:57:53.785Z,25.27
2017-06-30T05:59:03.992Z,25.21
2017-06-30T06:00:14.295Z,25.23
2017-06-30T06:01:24.526Z,25.27
2017-06-30T06:02:34.118Z,25.24
2017-06-30T06:03:44.330Z,25.24
2017-06-30T06:04:54.230Z,25.25
2017-06-30T06:06:04.451Z,25.25
2017-06-30T06:07:14.368Z,25.33
2017-06-30T06:08:24.284Z,25.38
2017-06-30T06:09:33.895Z,25.36
2017-06-30T06:10:43.195Z,25.38
2017-06-30T06:11:53.409Z,25.36
2017-06-30T06:13:03.303Z,25.36
2017-06-30T06:14:12.929Z,25.39
2017-06-30T06:15:23.145Z,25.35
2017-06-30T06:16:33.105Z,25.39
2017-06-30T06:17:43.660Z,25.38
2017-06-30T06:18:53.873Z,25.4
2017-06-30T06:20:03.769Z,25.46
2017-06-30T06:21:13.364Z,25.38
2017-06-30T06:22:22.985Z,25.46
2017-06-30T06:23:33.346Z,25.45
2017-06-30T06:24:43.576Z,25.52
2017-06-30T06:25:53.478Z,25.52
2017-06-30T06:27:03.387Z,25.51
2017-06-30T06:28:12.688Z,25.47
2017-06-30T06:29:23.114Z,25.5
2017-06-30T06:30:32.422Z,25.43
2017-06-30T06:31:42.632Z,25.52
2017-06-30T06:32:52.539Z,25.62
2017-06-30T06:34:02.771Z,25.61
2017-06-30T06:35:13.077Z,25.64
2017-06-30T06:36:22.979Z,25.55
2017-06-30T06:37:33.199Z,25.62
2017-06-30T06:38:43.410Z,25.65
2017-06-30T06:39:53.620Z,25.62
2017-06-30T06:41:03.373Z,25.69
2017-06-30T06:42:13.599Z,25.58
2017-06-30T06:43:23.810Z,25.58
2017-06-30T06:44:33.721Z,25.69
2017-06-30T06:45:43.625Z,25.65
2017-06-30T06:46:53.854Z,25.64
2017-06-30T06:48:04.061Z,25.6
2017-06-30T06:49:14.281Z,25.72
2017-06-30T06:50:24.510Z,25.69
2017-06-30T06:51:33.804Z,25.67
2017-06-30T06:52:44.185Z,25.7
2017-06-30T06:53:53.782Z,25.72
2017-06-30T06:55:03.379Z,25.73
2017-06-30T06:56:12.979Z,25.7
2017-06-30T06:57:22.286Z,25.75
2017-06-30T06:58:32.037Z,25.75
2017-06-30T06:59:42.244Z,25.76
2017-06-30T07:00:51.537Z,25.76
2017-06-30T07:02:01.444Z,25.73
2017-06-30T07:03:11.347Z,25.77
2017-06-30T07:04:21.662Z,25.88
2017-06-30T07:05:31.264Z,25.87
2017-06-30T07:06:41.172Z,25.92
2017-06-30T07:07:51.092Z,25.94
2017-06-30T07:09:01.289Z,25.94
2017-06-30T07:10:11.188Z,25.9
2017-06-30T07:11:20.807Z,25.95
2017-06-30T07:12:30.716Z,26.07
2017-06-30T07:13:40.928Z,26.12
2017-06-30T07:14:50.259Z,26.18
2017-06-30T07:16:00.012Z,26.21
2017-06-30T07:17:09.920Z,26.26
2017-06-30T07:18:19.556Z,26.33
2017-06-30T07:19:29.769Z,26.39
2017-06-30T07:20:39.691Z,26.52
2017-06-30T07:21:49.302Z,26.65
2017-06-30T07:22:59.513Z,26.76
2017-06-30T07:24:09.107Z,26.82
2017-06-30T07:25:19.026Z,27.03
2017-06-30T07:26:28.628Z,27.37
2017-06-30T07:27:38.691Z,27.57
2017-06-30T07:28:48.599Z,27.79
2017-06-30T07:29:58.807Z,28.02
2017-06-30T07:31:09.017Z,28.12
2017-06-30T07:32:18.933Z,28.22
2017-06-30T07:33:29.180Z,28.34
2017-06-30T07:34:39.437Z,28.39
2017-06-30T07:35:49.348Z,28.59
2017-06-30T07:36:59.584Z,28.71
2017-06-30T07:38:08.906Z,28.92
2017-06-30T07:39:18.925Z,29.05
2017-06-30T07:40:28.533Z,29.15
2017-06-30T07:41:38.756Z,29.26
2017-06-30T07:42:48.682Z,29.42
2017-06-30T07:43:58.916Z,29.58
2017-06-30T07:45:09.295Z,29.61
2017-06-30T07:46:18.588Z,29.71
2017-06-30T07:47:28.804Z,29.73
2017-06-30T07:48:38.408Z,29.9
2017-06-30T07:49:48.643Z,30.01
2017-06-30T07:50:58.724Z,30.13
2017-06-30T07:52:08.346Z,30.16
2017-06-30T07:53:18.562Z,30.17
2017-06-30T07:54:28.793Z,30.13
2017-06-30T07:55:39.024Z,30.01
2017-06-30T07:56:49.610Z,29.92
2017-06-30T07:57:59.827Z,29.98
2017-06-30T07:59:09.127Z,29.87
2017-06-30T08:00:19.041Z,29.68
2017-06-30T08:01:28.946Z,29.49
2017-06-30T08:02:39.324Z,29.23
2017-06-30T08:03:48.932Z,29.05
2017-06-30T08:04:59.154Z,28.98
2017-06-30T08:06:08.760Z,28.89
2017-06-30T08:07:18.997Z,28.85
2017-06-30T08:08:28.767Z,28.76
2017-06-30T08:09:38.991Z,28.67
2017-06-30T08:10:48.605Z,28.52
2017-06-30T08:11:58.237Z,28.41
2017-06-30T08:13:08.162Z,28.22
2017-06-30T08:14:18.539Z,28.12
2017-06-30T08:15:27.844Z,27.97
2017-06-30T08:16:37.762Z,27.84
2017-06-30T08:17:47.367Z,27.79
2017-06-30T08:18:57.583Z,27.65
2017-06-30T08:20:06.994Z,27.55
2017-06-30T08:21:17.224Z,27.54
2017-06-30T08:22:26.831Z,27.39
2017-06-30T08:23:36.451Z,27.34
2017-06-30T08:24:46.684Z,27.22
2017-06-30T08:25:57.266Z,27.31
2017-06-30T08:27:07.490Z,27.17
2017-06-30T08:28:17.714Z,27.17
2017-06-30T08:29:27.336Z,27
2017-06-30T08:30:37.556Z,27.06
2017-06-30T08:31:47.013Z,27
2017-06-30T08:32:56.325Z,26.84
2017-06-30T08:34:06.548Z,26.88
2017-06-30T08:35:16.480Z,26.88
2017-06-30T08:36:26.397Z,26.81
2017-06-30T08:37:36.052Z,26.8
2017-06-30T08:38:46.641Z,26.75
2017-06-30T08:39:56.863Z,26.66
2017-06-30T08:41:06.786Z,26.73
2017-06-30T08:42:17.018Z,26.66
2017-06-30T08:43:26.939Z,26.67
2017-06-30T08:44:36.856Z,26.57
2017-06-30T08:45:47.087Z,26.51
2017-06-30T08:46:56.705Z,26.47
2017-06-30T08:48:06.028Z,26.58
2017-06-30T08:49:15.634Z,26.51
2017-06-30T08:50:25.552Z,26.47
2017-06-30T08:51:35.174Z,26.45
2017-06-30T08:52:44.468Z,26.44
2017-06-30T08:53:54.399Z,26.43
2017-06-30T08:55:03.856Z,26.43
2017-06-30T08:56:13.780Z,26.37
2017-06-30T08:57:23.690Z,26.32
2017-06-30T08:58:33.613Z,26.3
2017-06-30T08:59:42.918Z,26.26
2017-06-30T09:00:53.145Z,26.32
2017-06-30T09:02:03.075Z,26.2
2017-06-30T09:03:12.991Z,26.2
2017-06-30T09:04:23.224Z,26.17
2017-06-30T09:05:33.452Z,26.18
2017-06-30T09:06:43.824Z,26.23
2017-06-30T09:07:54.055Z,26.06
2017-06-30T09:09:04.301Z,26.17
2017-06-30T09:10:14.526Z,26.12
2017-06-30T09:11:23.849Z,26.12
2017-06-30T09:12:33.898Z,26.18
2017-06-30T09:13:43.826Z,26.1
2017-06-30T09:14:54.058Z,26.09
2017-06-30T09:16:04.001Z,26.1
2017-06-30T09:17:13.619Z,26.18
2017-06-30T09:18:23.847Z,26.2
2017-06-30T09:19:33.767Z,26.23
2017-06-30T09:20:43.982Z,26.18
2017-06-30T09:21:53.595Z,26.18
2017-06-30T09:23:02.911Z,26.21
2017-06-30T09:24:12.881Z,26.2
2017-06-30T09:25:22.484Z,26.2
2017-06-30T09:26:32.398Z,26.29
2017-06-30T09:27:41.697Z,26.2
2017-06-30T09:28:51.611Z,26.25
2017-06-30T09:30:01.366Z,26.18
2017-06-30T09:31:10.669Z,26.2
2017-06-30T09:32:20.596Z,26.26
2017-06-30T09:33:30.203Z,26.1
2017-06-30T09:34:40.114Z,26.25
2017-06-30T09:35:49.888Z,26.18
2017-06-30T09:36:59.490Z,26.32
2017-06-30T09:38:09.409Z,26.21
2017-06-30T09:39:19.624Z,26.33
2017-06-30T09:40:29.838Z,26.26
2017-06-30T09:41:39.895Z,26.23
2017-06-30T09:42:50.102Z,26.29
2017-06-30T09:44:00.321Z,26.25
2017-06-30T09:45:09.967Z,26.21
2017-06-30T09:46:19.577Z,26.21
2017-06-30T09:47:28.894Z,26.07
2017-06-30T09:48:38.802Z,26.17
2017-06-30T09:49:48.412Z,26.09
2017-06-30T09:50:58.638Z,26.07
2017-06-30T09:52:08.236Z,26.12
2017-06-30T09:53:18.789Z,26.1
2017-06-30T09:54:28.702Z,26.15
2017-06-30T09:55:38.910Z,26.09
2017-06-30T09:56:49.137Z,26.05
2017-06-30T09:57:59.358Z,26.09
2017-06-30T09:59:09.937Z,25.98
2017-06-30T10:00:19.583Z,25.95
2017-06-30T10:01:29.793Z,25.98
2017-06-30T10:02:39.426Z,25.95
2017-06-30T10:03:48.715Z,25.99
2017-06-30T10:04:59.094Z,25.95
2017-06-30T10:06:08.701Z,25.97
2017-06-30T10:07:18.620Z,25.98
2017-06-30T10:08:28.537Z,26.17
2017-06-30T10:09:38.450Z,25.98
2017-06-30T10:10:47.889Z,25.99
2017-06-30T10:11:58.137Z,25.94
2017-06-30T10:13:08.357Z,26.05
2017-06-30T10:14:18.266Z,26.01
2017-06-30T10:15:28.479Z,26.02
2017-06-30T10:16:38.746Z,26.02
2017-06-30T10:17:48.358Z,25.94
2017-06-30T10:18:57.680Z,25.97
2017-06-30T10:20:07.601Z,25.98
2017-06-30T10:21:17.513Z,25.99
2017-06-30T10:22:27.933Z,25.95
2017-06-30T10:23:37.839Z,25.97
2017-06-30T10:24:48.053Z,26.02
2017-06-30T10:25:57.667Z,25.99
2017-06-30T10:27:07.271Z,26.06
2017-06-30T10:28:17.588Z,26.01
2017-06-30T10:29:26.895Z,25.97
2017-06-30T10:30:36.505Z,26.02
2017-06-30T10:31:46.439Z,26.01
2017-06-30T10:32:56.058Z,25.98
2017-06-30T10:34:05.771Z,26.1
2017-06-30T10:35:15.682Z,26.1
2017-06-30T10:36:25.903Z,26.1
2017-06-30T10:37:35.817Z,26.12
2017-06-30T10:38:46.030Z,26.12
2017-06-30T10:39:55.636Z,26.13
2017-06-30T10:41:05.551Z,26.12
2017-06-30T10:42:15.778Z,26.13
2017-06-30T10:43:26.043Z,26.17
2017-06-30T10:44:35.958Z,26.02
2017-06-30T10:45:45.715Z,26.09
2017-06-30T10:46:55.639Z,26.09
2017-06-30T10:48:05.231Z,25.99
2017-06-30T10:49:14.522Z,26.01
2017-06-30T10:50:24.463Z,26.02
2017-06-30T10:51:34.834Z,25.97
2017-06-30T10:52:44.830Z,25.99
2017-06-30T10:53:54.765Z,26.02
2017-06-30T10:55:04.998Z,25.98
2017-06-30T10:56:15.230Z,26.01
2017-06-30T10:57:25.558Z,26.05
2017-06-30T10:58:35.494Z,26.1
2017-06-30T10:59:45.092Z,26.1
2017-06-30T11:00:55.314Z,26.1
2017-06-30T11:02:04.916Z,26.12
2017-06-30T11:03:14.888Z,26.09
2017-06-30T11:04:24.805Z,26.2
2017-06-30T11:05:34.724Z,26.26
2017-06-30T11:06:44.342Z,26.25
2017-06-30T11:07:54.264Z,26.2
2017-06-30T11:09:04.643Z,26.23
2017-06-30T11:10:13.928Z,26.18
2017-06-30T11:11:23.841Z,26.28
2017-06-30T11:12:34.078Z,26.23
2017-06-30T11:13:44.303Z,26.17
2017-06-30T11:14:54.550Z,26.09
2017-06-30T11:16:04.793Z,26.13
2017-06-30T11:17:15.020Z,26.12
2017-06-30T11:18:24.928Z,26.13
2017-06-30T11:19:34.846Z,26.12
2017-06-30T11:20:45.236Z,26.15
2017-06-30T11:21:54.852Z,25.95
2017-06-30T11:23:04.769Z,26.15
2017-06-30T11:24:14.069Z,26.06
2017-06-30T11:25:23.689Z,26.07
2017-06-30T11:26:33.598Z,26.1
2017-06-30T11:27:43.207Z,26.15
2017-06-30T11:28:52.834Z,26.12
2017-06-30T11:30:02.740Z,26.1
2017-06-30T11:31:12.655Z,26.1
2017-06-30T11:32:22.624Z,26.13
2017-06-30T11:33:32.907Z,26.1
2017-06-30T11:34:43.175Z,26.07
2017-06-30T11:35:53.391Z,26.06
2017-06-30T11:37:03.619Z,26.15
2017-06-30T11:38:13.576Z,26.12
2017-06-30T11:39:23.487Z,26.13
2017-06-30T11:40:33.711Z,26.12
2017-06-30T11:41:43.641Z,26.1
2017-06-30T11:42:53.631Z,26.17
2017-06-30T11:44:03.313Z,26.07
2017-06-30T11:45:13.544Z,26.05
2017-06-30T11:46:23.784Z,26.1
2017-06-30T11:47:33.738Z,26.12
2017-06-30T11:48:43.673Z,26.09
2017-06-30T11:49:54.273Z,26.05
2017-06-30T11:51:04.293Z,26.15
2017-06-30T11:52:14.655Z,26.15
2017-06-30T11:53:24.887Z,26.1
2017-06-30T11:54:34.393Z,26.12
2017-06-30T11:55:44.451Z,26.1
2017-06-30T11:56:53.448Z,26.13
2017-06-30T11:58:03.672Z,26.1
2017-06-30T11:59:13.916Z,26.1
2017-06-30T12:00:24.142Z,26.1
2017-06-30T12:01:33.600Z,26.12
2017-06-30T12:02:43.823Z,25.98
2017-06-30T12:03:54.084Z,26.05
2017-06-30T12:05:03.994Z,25.95
2017-06-30T12:06:13.961Z,26.06
2017-06-30T12:07:23.745Z,26.12
2017-06-30T12:08:34.004Z,26.01
2017-06-30T12:09:43.916Z,25.98
2017-06-30T12:10:54.142Z,25.99
2017-06-30T12:12:03.749Z,26.05
2017-06-30T12:13:13.358Z,26.02
2017-06-30T12:14:23.601Z,26.01
2017-06-30T12:15:33.207Z,26.05
2017-06-30T12:16:43.427Z,26.09
2017-06-30T12:17:53.645Z,26.12
2017-06-30T12:19:03.563Z,26.12
2017-06-30T12:20:13.552Z,26.09
2017-06-30T12:21:23.171Z,26.1
2017-06-30T12:22:33.124Z,26.12
2017-06-30T12:23:42.752Z,26.09
2017-06-30T12:24:52.391Z,26.07
2017-06-30T12:26:02.305Z,26.09
2017-06-30T12:27:11.624Z,26.13
2017-06-30T12:28:21.259Z,26.15
2017-06-30T12:29:31.524Z,26.18
2017-06-30T12:30:41.003Z,26.18
2017-06-30T12:31:50.920Z,26.23
2017-06-30T12:33:00.513Z,26.2
2017-06-30T12:34:10.425Z,26.09
2017-06-30T12:35:20.647Z,26.25
2017-06-30T12:36:31.225Z,26.17
2017-06-30T12:37:41.455Z,26.2
2017-06-30T12:38:51.380Z,26.18
2017-06-30T12:40:01.596Z,26.21
2017-06-30T12:41:11.824Z,26.2
2017-06-30T12:42:21.854Z,26.29
2017-06-30T12:43:31.479Z,26.2
2017-06-30T12:44:40.817Z,26.25
2017-06-30T12:45:50.429Z,26.21
2017-06-30T12:47:00.029Z,26.29
2017-06-30T12:48:10.233Z,26.21
2017-06-30T12:49:20.148Z,26.18
2017-06-30T12:50:30.080Z,26.21
2017-06-30T12:51:39.971Z,26.2
2017-06-30T12:52:49.885Z,26.26
2017-06-30T12:54:00.095Z,26.3
2017-06-30T12:55:10.021Z,26.3
2017-06-30T12:56:20.013Z,26.28
2017-06-30T12:57:29.952Z,26.21
2017-06-30T12:58:39.581Z,26.3
2017-06-30T12:59:49.257Z,26.21
2017-06-30T13:00:58.871Z,26.28
2017-06-30T13:02:08.791Z,26.29
2017-06-30T13:03:18.411Z,26.29
2017-06-30T13:04:28.624Z,26.29
2017-06-30T13:05:38.712Z,26.32
2017-06-30T13:06:48.324Z,26.29
2017-06-30T13:07:58.261Z,26.28
2017-06-30T13:09:07.882Z,26.25
2017-06-30T13:10:17.224Z,26.29
2017-06-30T13:11:27.305Z,26.28
2017-06-30T13:12:37.230Z,26.25
2017-06-30T13:13:46.851Z,26.29
2017-06-30T13:14:56.462Z,26.3
2017-06-30T13:16:06.393Z,26.36
2017-06-30T13:17:16.314Z,26.33
2017-06-30T13:18:26.253Z,26.3
2017-06-30T13:19:36.482Z,26.29
2017-06-30T13:20:46.390Z,26.29
2017-06-30T13:21:55.994Z,26.32
2017-06-30T13:23:06.066Z,26.36
2017-06-30T13:24:15.674Z,26.28
2017-06-30T13:25:25.906Z,26.29
2017-06-30T13:26:35.837Z,26.3
2017-06-30T13:27:45.763Z,26.35
2017-06-30T13:28:55.706Z,26.29
2017-06-30T13:30:05.934Z,26.28
2017-06-30T13:31:15.861Z,26.29
2017-06-30T13:32:25.473Z,26.25
2017-06-30T13:33:35.377Z,26.35
2017-06-30T13:34:45.450Z,26.29
2017-06-30T13:35:55.361Z,26.25
2017-06-30T13:37:05.286Z,26.35
2017-06-30T13:38:15.203Z,26.3
2017-06-30T13:39:25.422Z,26.32
2017-06-30T13:40:36.387Z,26.29
2017-06-30T13:41:46.301Z,26.25
2017-06-30T13:42:56.539Z,26.35
2017-06-30T13:44:06.484Z,26.26
2017-06-30T13:45:16.141Z,26.23
2017-06-30T13:46:26.044Z,26.33
2017-06-30T13:47:35.977Z,26.36
2017-06-30T13:48:45.581Z,26.3
2017-06-30T13:49:55.497Z,26.32
2017-06-30T13:51:05.726Z,26.3
2017-06-30T13:52:16.033Z,26.35
2017-06-30T13:53:25.650Z,26.33
2017-06-30T13:54:35.566Z,26.32
2017-06-30T13:55:45.789Z,26.32
2017-06-30T13:56:55.389Z,26.23
2017-06-30T13:58:05.056Z,26.28
2017-06-30T13:59:14.971Z,26.28
2017-06-30T14:00:24.284Z,26.26
2017-06-30T14:01:34.190Z,26.29
2017-06-30T14:02:44.419Z,26.26
2017-06-30T14:03:54.633Z,26.26
2017-06-30T14:05:04.547Z,26.26
2017-06-30T14:06:14.760Z,26.36
2017-06-30T14:07:24.709Z,26.32
2017-06-30T14:08:34.348Z,26.35
2017-06-30T14:09:44.058Z,26.29
2017-06-30T14:10:54.267Z,26.3
2017-06-30T14:12:03.881Z,26.26
2017-06-30T14:13:13.816Z,26.3
2017-06-30T14:14:23.739Z,26.25
2017-06-30T14:15:34.182Z,26.33
2017-06-30T14:16:43.512Z,26.29
2017-06-30T14:17:53.736Z,26.3
2017-06-30T14:19:03.354Z,26.29
2017-06-30T14:20:12.657Z,26.29
2017-06-30T14:21:22.758Z,26.28
2017-06-30T14:22:32.672Z,26.26
2017-06-30T14:23:42.886Z,26.28
2017-06-30T14:24:52.806Z,26.3
2017-06-30T14:26:02.725Z,26.28
2017-06-30T14:27:12.730Z,26.29
2017-06-30T14:28:22.350Z,26.29
2017-06-30T14:29:32.581Z,26.35
2017-06-30T14:30:42.790Z,26.28
2017-06-30T14:31:52.713Z,26.3
2017-06-30T14:33:02.466Z,26.35
2017-06-30T14:34:12.066Z,26.28
2017-06-30T14:35:22.277Z,26.37
2017-06-30T14:36:31.875Z,26.32
2017-06-30T14:37:40.877Z,26.36
2017-06-30T14:38:50.524Z,26.33
2017-06-30T14:40:00.431Z,26.33
2017-06-30T14:41:10.027Z,26.32
2017-06-30T14:42:20.264Z,26.37
2017-06-30T14:43:30.200Z,26.35
2017-06-30T14:44:40.177Z,26.35
2017-06-30T14:45:50.389Z,26.33
2017-06-30T14:47:00.297Z,26.29
2017-06-30T14:48:10.513Z,26.36
2017-06-30T14:49:20.744Z,26.36
2017-06-30T14:50:30.506Z,26.35
2017-06-30T14:51:40.411Z,26.35
2017-06-30T14:52:50.616Z,26.37
2017-06-30T14:54:00.538Z,26.43
2017-06-30T14:55:10.148Z,26.33
2017-06-30T14:56:20.519Z,26.37
2017-06-30T14:57:30.430Z,26.33
2017-06-30T14:58:40.698Z,26.37
2017-06-30T14:59:50.321Z,26.29
2017-06-30T15:01:00.276Z,26.33
2017-06-30T15:02:10.350Z,26.37
2017-06-30T15:03:20.254Z,26.3
2017-06-30T15:04:30.191Z,26.37